Meteo Giornale » Osservazioni meteo Stati Uniti (USA) » Wenatchee Pangborn Memorial
ore: 09:55 - Osservazioni Meteo Wenatchee Pangborn Memorial
Lat. 47° 23' N Lon. 120° 12' W Alt. 381 metri s.l.m.
20 °C
Foschia
Temp. 24 Ore
16 °C
28 °C
Ovest
11.1 Km/h
Dew point 7 °C
Umidità 42 %
Visibilità 10 Km
Il sole sorge alle ore 06:20
Il sole tramonta alle ore 19:41
| Data e Ora | Cielo e Fenomeni | T °C | DP °C | Um. % | Pres. hPa | Vis. km | Vento km/h | |
|---|---|---|---|---|---|---|---|---|
| Oggi h: 09:55 | Foschia | 20 | 7 | 42 | 1007 | 10 | O 11.1 | |
| Oggi h: 08:55 | Foschia | 17 | 7 | 51 | 1007 | 8 | O 11.1 | |
| Oggi h: 07:55 | Foschia | 16 | 7 | 55 | 1008 | 8 | O 11.1 | |
| Oggi h: 07:42 | Foschia | 16 | 7 | 55 | 1008 | 10 | O 13 | |
| Oggi h: 06:55 | Foschia | 16 | 7 | 55 | 1007 | 10 | O 18.5 | |
| Oggi h: 05:55 | Sereno | 16 | 6 | 51 | 1007 | 13 | O/NO 14.8 | |
| Oggi h: 04:55 | Sereno | 17 | 7 | 51 | 1007 | 13 | O 16.7 | |
| Oggi h: 03:55 | Sereno | 17 | 6 | 48 | 1008 | 10 | O 11.1 | |
| Oggi h: 02:55 | Sereno | 17 | 7 | 51 | 1008 | 10 | N 5.5 | |
| Oggi h: 01:55 | Sereno | 18 | 6 | 45 | 1008 | 10 | O 18.5 | |
| Oggi h: 00:55 | Sereno | 20 | 6 | 39 | 1008 | 10 | O/NO 14.8 | |
| Ieri h: 23:55 | Sereno | 19 | 6 | 42 | 1008 | 10 | O/NO 9.3 | |
| Ieri h: 22:55 | Sereno | 21 | 6 | 37 | 1008 | 10 | O 14.8 | |
| Ieri h: 21:55 | Sereno | 22 | 5 | 32 | 1008 | 10 | NO 9.3 | |
| Ieri h: 20:55 | Sereno | 23 | 6 | 33 | 1008 | 10 | NO 9.3 | |
| Ieri h: 19:55 | Sereno | 24 | 7 | 33 | 1008 | 10 | E/NE 7.4 | |
| Ieri h: 18:55 | Sereno | 26 | 7 | 29 | 1008 | 10 | N 5.5 | |
| Ieri h: 17:55 | Sereno | 28 | 4 | 21 | 1009 | 10 | SE 13 | |
| Ieri h: 16:55 | Sereno | 28 | 4 | 21 | 1009 | 10 | S/SE 14.8 | |
| Ieri h: 15:55 | Sereno | 27 | 4 | 22 | 1010 | 10 | S/SE 14.8 | |
| Ieri h: 14:55 | Sereno | 27 | 5 | 24 | 1011 | 10 | S/SE 14.8 | |
| Ieri h: 13:55 | Sereno | 26 | 5 | 25 | 1012 | 10 | SE 13 | |
| Ieri h: 12:55 | Sereno | 24 | 6 | 31 | 1013 | 10 | N 0 | |
| Ieri h: 11:55 | Sereno | 22 | 8 | 40 | 1014 | 14 | N 0 | |
| Ieri h: 10:55 | Foschia | 19 | 8 | 48 | 1015 | 10 | N 0 | |



